Time;durP1;ratioP1;P1;durP2;ratioP2;P2;SDS_P1;SDS_P2;PMS_P1;PMS_P2;Temp;Humidity;BMP_temperature;BMP_pressure;BME280_temperature;BME280_humidity;BME280_pressure;Samples;Min_cycle;Max_cycle;Signal;HPM_P1;HPM_P2
2024/03/06 03:05:59;;;;;;;53.50;30.40;;;;;;;-0.13;100.00;100954.13;102707;1290;617160;-74
2024/03/06 03:08:27;;;;;;;52.30;28.80;;;;;;;-0.14;100.00;100953.27;104919;1268;61158;-74
2024/03/06 03:10:55;;;;;;;55.20;34.50;;;;;;;-0.10;100.00;100957.00;104932;1264;60115;-75
2024/03/06 03:13:22;;;;;;;61.80;35.20;;;;;;;-0.04;100.00;100957.80;104960;1264;72285;-75
2024/03/06 03:15:49;;;;;;;66.40;33.20;;;;;;;-0.00;100.00;100957.08;105046;1264;62384;-75
2024/03/06 03:18:16;;;;;;;59.40;34.30;;;;;;;0.05;100.00;100959.25;104906;1263;225288;-75
2024/03/06 03:20:44;;;;;;;86.50;33.00;;;;;;;0.07;100.00;100963.00;105252;1263;59218;-74
2024/03/06 03:23:14;;;;;;;60.60;30.20;;;;;;;0.07;100.00;100965.75;105360;1261;60144;-74
2024/03/06 03:25:44;;;;;;;62.00;32.10;;;;;;;0.06;100.00;100965.08;105324;1261;72239;-74
2024/03/06 03:28:10;;;;;;;56.40;30.50;;;;;;;0.05;100.00;100969.23;105335;1263;63868;-76
2024/03/06 03:30:38;;;;;;;59.90;31.60;;;;;;;0.01;100.00;100967.88;105264;1263;72691;-74
2024/03/06 03:33:05;;;;;;;49.00;28.40;;;;;;;-0.03;100.00;100970.49;105289;1263;59708;-74
2024/03/06 03:35:32;;;;;;;51.40;30.40;;;;;;;-0.09;100.00;100974.35;105905;1261;60270;-73
2024/03/06 03:37:59;;;;;;;43.30;24.20;;;;;;;-0.14;100.00;100974.05;106921;1259;73021;-73
2024/03/06 03:40:25;;;;;;;46.40;26.00;;;;;;;-0.15;100.00;100970.12;105792;1261;62388;-75
2024/03/06 03:42:52;;;;;;;31.60;17.70;;;;;;;-0.15;100.00;100968.75;105222;1263;71386;-75
2024/03/06 03:45:20;;;;;;;25.30;14.40;;;;;;;-0.15;100.00;100971.33;105334;1260;61169;-75
2024/03/06 03:47:47;;;;;;;20.40;13.70;;;;;;;-0.15;100.00;100974.24;105314;1261;60355;-73
2024/03/06 03:50:15;;;;;;;22.70;13.30;;;;;;;-0.14;100.00;100976.30;105257;1261;72877;-75
2024/03/06 03:52:43;;;;;;;23.90;12.70;;;;;;;-0.11;100.00;100976.42;105466;1262;63893;-75
2024/03/06 03:55:10;;;;;;;18.00;12.20;;;;;;;-0.08;100.00;100980.02;105367;1262;72666;-75
2024/03/06 03:57:38;;;;;;;22.30;12.00;;;;;;;-0.09;100.00;100979.16;105620;1263;59699;-75
2024/03/06 04:00:10;;;;;;;18.20;12.60;;;;;;;-0.13;100.00;100986.95;105610;1257;60592;-75
2024/03/06 04:02:38;;;;;;;18.70;12.00;;;;;;;-0.15;100.00;100991.95;105392;1257;72907;-74
2024/03/06 04:05:05;;;;;;;23.00;13.00;;;;;;;-0.15;100.00;100991.94;105451;1262;63608;-74
2024/03/06 04:07:33;;;;;;;20.10;11.90;;;;;;;-0.15;100.00;100996.05;105675;1262;72708;-75
2024/03/06 04:10:00;;;;;;;21.70;15.60;;;;;;;-0.14;100.00;101000.01;105553;1262;59698;-74
2024/03/06 04:12:28;;;;;;;26.20;14.40;;;;;;;-0.13;100.00;100997.25;105551;1257;60313;-75
2024/03/06 04:14:55;;;;;;;27.80;13.10;;;;;;;-0.09;100.00;101001.16;105404;1261;72717;-75
2024/03/06 04:17:21;;;;;;;28.00;13.20;;;;;;;-0.08;100.00;101001.49;105273;1260;62369;-74
2024/03/06 04:19:49;;;;;;;22.00;10.90;;;;;;;-0.09;100.00;101007.34;105631;1254;72486;-74
2024/03/06 04:22:19;;;;;;;26.10;13.70;;;;;;;-0.17;100.00;101008.11;105714;1254;61001;-72
2024/03/06 04:24:49;;;;;;;19.10;12.30;;;;;;;-0.20;100.00;101003.15;105740;1254;60142;-73
2024/03/06 04:27:16;;;;;;;20.30;13.10;;;;;;;-0.14;100.00;101002.41;105700;1254;73067;-75
2024/03/06 04:29:43;;;;;;;18.90;11.30;;;;;;;-0.08;100.00;101005.96;105756;1254;62254;-76
2024/03/06 04:32:10;;;;;;;22.50;11.90;;;;;;;-0.02;100.00;101008.99;105694;1254;70690;-72
2024/03/06 04:34:37;;;;;;;20.30;11.20;;;;;;;-0.05;100.00;101006.28;105704;1258;59806;-73
2024/03/06 04:37:04;;;;;;;16.70;11.80;;;;;;;-0.15;100.00;101008.09;105709;1254;60324;-75
2024/03/06 04:39:32;;;;;;;18.10;11.70;;;;;;;-0.27;100.00;101009.91;105822;1256;72934;-75
2024/03/06 04:41:59;;;;;;;23.60;12.40;;;;;;;-0.38;100.00;101011.22;105786;1254;62353;-74
2024/03/06 04:44:27;;;;;;;22.80;12.70;;;;;;;-0.44;100.00;101009.73;105661;1254;72655;-74
2024/03/06 04:46:56;;;;;;;20.10;12.70;;;;;;;-0.50;100.00;101018.19;105979;1260;59690;-75
2024/03/06 04:49:26;;;;;;;18.50;11.90;;;;;;;-0.56;100.00;101020.29;105764;1255;61148;-74
2024/03/06 04:51:53;;;;;;;18.10;11.90;;;;;;;-0.57;100.00;101025.11;105684;1259;72877;-74
2024/03/06 04:54:20;;;;;;;17.50;10.70;;;;;;;-0.54;100.00;101026.12;105669;1257;64017;-72
2024/03/06 04:56:47;;;;;;;19.10;11.60;;;;;;;-0.54;100.00;101026.11;105654;1258;72797;-74
2024/03/06 04:59:15;;;;;;;20.30;11.50;;;;;;;-0.55;100.00;101026.64;105686;1260;61129;-75
2024/03/06 05:01:43;;;;;;;14.90;10.50;;;;;;;-0.53;100.00;101031.09;105734;1254;60367;-74
2024/03/06 05:04:11;;;;;;;18.70;11.10;;;;;;;-0.50;100.00;101034.67;105629;1259;73022;-75
2024/03/06 05:06:55;;;;;;;19.40;12.70;;;;;;;-0.51;100.00;101037.08;105709;1254;62511;-74
2024/03/06 05:09:41;;;;;;;16.90;11.70;;;;;;;-0.49;100.00;101038.45;105650;1259;72514;-74
2024/03/06 05:12:26;;;;;;;20.10;11.50;;;;;;;-0.48;100.00;101035.69;105715;1254;59685;-75
2024/03/06 05:15:12;;;;;;;20.90;11.40;;;;;;;-0.41;100.00;101037.35;105814;1254;60274;-73
2024/03/06 05:17:57;;;;;;;23.30;12.80;;;;;;;-0.34;100.00;101038.51;105714;1254;72993;-72
2024/03/06 05:20:43;;;;;;;25.10;12.40;;;;;;;-0.36;100.00;101038.69;105708;1260;64238;-75
2024/03/06 05:23:28;;;;;;;18.10;11.40;;;;;;;-0.33;100.00;101036.61;105598;1260;72512;-75
2024/03/06 05:26:12;;;;;;;20.50;11.90;;;;;;;-0.29;100.00;101033.98;105669;1260;59662;-74
2024/03/06 05:28:58;;;;;;;20.50;12.00;;;;;;;-0.26;100.00;101036.02;105734;1254;60389;-74
2024/03/06 05:31:43;;;;;;;22.30;11.90;;;;;;;-0.24;100.00;101036.18;105656;1254;73081;-73
2024/03/06 05:34:29;;;;;;;18.10;12.20;;;;;;;-0.21;100.00;101037.19;105649;1260;63630;-74
2024/03/06 05:37:15;;;;;;;16.50;12.20;;;;;;;-0.18;100.00;101038.20;105673;1257;72550;-73
2024/03/06 05:40:00;;;;;;;26.40;12.20;;;;;;;-0.13;100.00;101035.05;105738;1259;59810;-76
2024/03/06 05:42:45;;;;;;;19.40;11.50;;;;;;;-0.03;100.00;101030.31;105816;1254;60396;-74
2024/03/06 05:45:30;;;;;;;24.50;13.00;;;;;;;0.07;100.00;101028.84;105672;1255;72153;-75
2024/03/06 05:48:15;;;;;;;;;;;;;;;0.15;100.00;101032.70;105813;1259;63848;-73
2024/03/06 05:51:00;;;;;;;18.30;10.90;;;;;;;0.22;100.00;101030.41;105802;1254;70324;-74
2024/03/06 05:53:45;;;;;;;21.00;12.80;;;;;;;0.26;100.00;101031.73;105698;1260;59720;-74
2024/03/06 05:56:30;;;;;;;21.20;12.80;;;;;;;0.28;100.00;101032.05;105730;1254;59909;-75
2024/03/06 05:59:15;;;;;;;18.40;12.00;;;;;;;0.34;100.00;101034.91;105733;1254;73024;-74
2024/03/06 06:01:44;;;;;;;18.70;11.30;;;;;;;0.44;100.00;101041.34;105812;1260;63824;-73
2024/03/06 06:04:13;;;;;;;22.30;11.90;;;;;;;0.52;100.00;101041.75;105807;1254;72623;-74
2024/03/06 06:06:40;;;;;;;17.60;12.30;;;;;;;0.62;100.00;101046.64;105820;1259;60440;-73
2024/03/06 06:09:15;;;;;;;19.80;13.20;;;;;;;0.66;100.00;101048.81;105839;1254;59650;-75
2024/03/06 06:11:43;;;;;;;;;;;;;;;0.69;100.00;101048.96;105801;1254;72956;-73
2024/03/06 06:14:10;;;;;;;18.50;12.20;;;;;;;0.73;100.00;101053.04;107084;1254;62235;-73
2024/03/06 06:16:38;;;;;;;17.80;12.00;;;;;;;0.77;100.00;101052.64;107138;1255;71041;-74
2024/03/06 06:19:05;;;;;;;16.90;11.20;;;;;;;0.76;100.00;101054.39;105953;1260;59631;-75
2024/03/06 06:21:35;;;;;;;19.20;13.10;;;;;;;0.79;100.00;101056.92;105942;1254;60183;-72
2024/03/06 06:24:03;;;;;;;18.90;12.60;;;;;;;0.90;100.00;101059.52;105691;1260;72663;-73
2024/03/06 06:26:30;;;;;;;20.60;10.80;;;;;;;1.05;100.00;101064.50;105786;1260;64007;-73
2024/03/06 06:28:57;;;;;;;26.80;14.00;;;;;;;1.15;100.00;101064.36;105718;1260;72329;-73
2024/03/06 06:31:26;;;;;;;17.20;11.10;;;;;;;1.20;100.00;101064.12;105800;1255;59723;-75
2024/03/06 06:33:53;;;;;;;20.20;10.90;;;;;;;1.29;100.00;101069.85;105884;1257;60341;-72
2024/03/06 06:36:20;;;;;;;22.60;12.80;;;;;;;1.33;100.00;101069.10;105696;1254;72096;-73
2024/03/06 06:38:48;;;;;;;19.60;12.60;;;;;;;1.33;100.00;101069.09;105796;1260;63867;-73
2024/03/06 06:41:15;;;;;;;24.20;14.60;;;;;;;1.32;100.00;101071.88;105760;1254;71182;-74
2024/03/06 06:43:42;;;;;;;18.60;12.60;;;;;;;1.30;100.00;101073.63;105740;1259;59717;-74
2024/03/06 06:46:10;;;;;;;18.10;12.30;;;;;;;1.34;100.00;101078.22;105776;1254;60334;-74
2024/03/06 06:48:37;;;;;;;21.70;12.90;;;;;;;1.41;100.00;101074.33;105795;1255;73844;-74
2024/03/06 06:51:04;;;;;;;20.00;12.30;;;;;;;1.44;100.00;101072.20;105732;1260;63239;-74
2024/03/06 06:53:31;;;;;;;16.60;11.40;;;;;;;1.48;100.00;101074.90;105796;1254;73506;-72
2024/03/06 06:55:58;;;;;;;22.40;12.40;;;;;;;1.52;100.00;101074.34;105816;1254;59682;-75
2024/03/06 06:58:28;;;;;;;19.40;12.30;;;;;;;1.55;100.00;101078.59;105778;1254;59688;-74
2024/03/06 07:00:55;;;;;;;26.60;14.00;;;;;;;1.57;100.00;101078.90;105699;1260;73060;-75
2024/03/06 07:03:29;;;;;;;22.10;12.50;;;;;;;1.54;100.00;101083.09;105813;1257;64258;-75
2024/03/06 07:05:57;;;;;;;21.20;11.90;;;;;;;1.58;100.00;101080.43;105806;1254;72680;-75
2024/03/06 07:08:24;;;;;;;24.10;11.80;;;;;;;1.70;100.00;101086.63;105764;1258;61159;-74
2024/03/06 07:10:53;;;;;;;24.00;13.00;;;;;;;1.82;100.00;101091.43;105739;1260;59985;-74
2024/03/06 07:13:20;;;;;;;19.80;13.00;;;;;;;1.89;100.00;101093.04;105827;1254;71737;-73
2024/03/06 07:15:47;;;;;;;21.30;13.40;;;;;;;1.95;100.00;101091.57;106031;1251;64823;-73
2024/03/06 07:18:14;;;;;;;23.60;14.40;;;;;;;2.09;100.00;101091.86;105940;1251;72728;-73
2024/03/06 07:20:40;;;;;;;21.90;14.10;;;;;;;2.22;100.00;101095.06;106001;1253;60456;-74
2024/03/06 07:23:09;;;;;;;17.00;12.60;;;;;;;2.33;100.00;101095.73;106047;1254;60728;-73
2024/03/06 07:25:36;;;;;;;23.50;15.40;;;;;;;2.44;100.00;101100.88;106008;1255;74142;-75
2024/03/06 07:28:03;;;;;;;22.90;13.40;;;;;;;2.50;100.00;101098.35;106092;1257;65066;-74
2024/03/06 07:30:30;;;;;;;25.70;15.20;;;;;;;2.61;100.00;101102.45;105934;1257;72809;-72
2024/03/06 07:32:57;;;;;;;23.70;14.00;;;;;;;2.85;100.00;101097.48;105932;1257;60517;-76
2024/03/06 07:35:25;;;;;;;20.80;14.40;;;;;;;3.05;100.00;101096.21;106185;1256;60494;-75
2024/03/06 07:37:52;;;;;;;18.40;13.60;;;;;;;3.30;100.00;101100.85;105927;1251;74715;-73
2024/03/06 07:40:19;;;;;;;27.30;16.30;;;;;;;3.54;100.00;101099.80;106026;1254;64248;-75
2024/03/06 07:42:46;;;;;;;23.90;15.50;;;;;;;3.71;100.00;101101.29;106002;1255;71881;-73
2024/03/06 07:45:13;;;;;;;23.80;15.50;;;;;;;3.90;100.00;101099.12;106022;1256;60519;-72
2024/03/06 07:47:41;;;;;;;23.70;15.70;;;;;;;4.16;100.00;101100.20;106014;1254;60326;-74
2024/03/06 07:50:10;;;;;;;21.30;15.30;;;;;;;4.37;100.00;101099.64;105959;1251;72784;-75
2024/03/06 07:52:37;;;;;;;20.90;15.80;;;;;;;4.44;100.00;101097.55;106020;1257;63201;-73
2024/03/06 07:55:07;;;;;;;20.50;15.40;;;;;;;4.42;100.00;101101.41;106020;1257;73709;-73
2024/03/06 07:57:34;;;;;;;22.40;16.30;;;;;;;4.31;100.00;101107.27;105885;1254;60530;-73
2024/03/06 08:00:08;;;;;;;23.70;16.80;;;;;;;4.22;100.00;101110.59;105921;1251;60546;-75
2024/03/06 08:02:42;;;;;;;26.80;17.10;;;;;;;4.25;100.00;101110.69;105922;1252;72747;-74
2024/03/06 08:05:12;;;;;;;35.10;17.60;;;;;;;4.28;100.00;101108.71;105975;1256;62089;-75
2024/03/06 08:07:41;;;;;;;19.20;14.00;;;;;;;4.28;100.00;101107.33;105963;1256;72777;-75
2024/03/06 08:10:09;;;;;;;29.10;17.00;;;;;;;4.39;100.00;101103.05;106062;1255;60437;-73
2024/03/06 08:12:36;;;;;;;24.70;15.50;;;;;;;4.49;100.00;101107.98;105969;1256;61480;-73
2024/03/06 08:15:03;;;;;;;23.60;15.30;;;;;;;4.64;100.00;101105.33;105903;1250;74002;-74
2024/03/06 08:17:30;;;;;;;24.40;17.10;;;;;;;4.79;100.00;101107.34;105991;1257;64206;-72
2024/03/06 08:19:58;;;;;;;22.20;16.60;;;;;;;4.90;100.00;101107.18;105948;1251;72732;-75
2024/03/06 08:22:27;;;;;;;22.70;14.90;;;;;;;4.97;100.00;101112.89;105928;1251;60442;-73
2024/03/06 08:24:54;;;;;;;22.90;15.30;;;;;;;4.98;100.00;101109.03;105908;1252;60508;-72
2024/03/06 08:27:21;;;;;;;37.30;16.50;;;;;;;4.96;100.00;101112.91;105822;1251;73943;-74
2024/03/06 08:29:48;;;;;;;24.30;15.00;;;;;;;4.89;100.00;101112.09;105933;1251;65137;-74
2024/03/06 08:32:18;;;;;;;22.00;13.30;;;;;;;4.78;100.00;101113.77;105864;1251;72414;-71
2024/03/06 08:34:45;;;;;;;21.20;15.50;;;;;;;4.69;100.00;101112.30;105850;1251;60422;-74
2024/03/06 08:37:13;;;;;;;19.90;13.60;;;;;;;4.68;100.00;101110.40;105981;1251;61392;-73
2024/03/06 08:39:40;;;;;;;20.10;15.60;;;;;;;4.70;100.00;101111.90;105924;1251;72307;-74
2024/03/06 08:42:06;;;;;;;17.80;13.20;;;;;;;4.73;100.00;101112.88;105888;1257;64800;-72
2024/03/06 08:44:33;;;;;;;21.80;14.10;;;;;;;4.80;100.00;101112.52;105892;1255;73854;-72
2024/03/06 08:47:00;;;;;;;20.90;14.70;;;;;;;4.78;100.00;101112.54;105942;1256;60450;-74
2024/03/06 08:49:26;;;;;;;22.40;14.90;;;;;;;4.71;100.00;101115.71;106024;1251;60513;-73
2024/03/06 08:51:53;;;;;;;27.30;14.30;;;;;;;4.66;100.00;101119.84;106118;1251;74057;-72
2024/03/06 08:54:20;;;;;;;17.70;13.60;;;;;;;4.66;100.00;101115.66;107036;1250;64254;-71
2024/03/06 08:56:48;;;;;;;19.10;13.30;;;;;;;4.64;100.00;101116.23;106713;1256;72414;-74
2024/03/06 08:59:15;;;;;;;21.20;13.90;;;;;;;4.63;100.00;101117.13;106370;1251;60501;-74
2024/03/06 09:01:42;;;;;;;21.40;13.60;;;;;;;4.60;100.00;101122.74;106388;1251;61181;-72
2024/03/06 09:04:11;;;;;;;18.80;14.40;;;;;;;4.63;100.00;101118.02;105926;1255;73866;-73
2024/03/06 09:06:38;;;;;;;19.70;13.90;;;;;;;4.69;100.00;101119.57;106064;1252;61606;-74
2024/03/06 09:09:06;;;;;;;23.10;14.00;;;;;;;4.76;100.00;101117.09;105952;1255;73778;-72
2024/03/06 09:11:33;;;;;;;22.00;13.40;;;;;;;4.86;100.00;101122.05;105908;1252;61208;-75
2024/03/06 09:13:59;;;;;;;21.50;14.40;;;;;;;4.83;100.00;101115.70;105984;1254;60590;-75
2024/03/06 09:16:29;;;;;;;18.60;13.50;;;;;;;4.79;100.00;101114.24;106089;1257;75410;-75
2024/03/06 09:18:55;;;;;;;19.50;13.80;;;;;;;4.83;100.00;101116.91;105995;1257;64945;-73
2024/03/06 09:21:22;;;;;;;24.10;13.50;;;;;;;4.86;100.00;101116.84;105914;1256;73720;-75
2024/03/06 09:23:51;;;;;;;19.40;13.70;;;;;;;4.86;100.00;101118.93;105899;1257;60376;-72
2024/03/06 09:26:18;;;;;;;24.10;14.40;;;;;;;4.84;100.00;101112.92;105902;1254;60418;-73
2024/03/06 09:28:46;;;;;;;23.80;14.30;;;;;;;4.87;100.00;101105.73;105917;1255;74771;-74
2024/03/06 09:31:13;;;;;;;23.40;13.50;;;;;;;4.97;100.00;101106.81;105978;1254;62071;-75
2024/03/06 09:33:40;;;;;;;19.60;13.90;;;;;;;5.16;100.00;101101.57;105931;1255;72835;-73
2024/03/06 09:36:10;;;;;;;18.20;14.00;;;;;;;5.49;100.00;101095.73;105906;1255;60501;-74
2024/03/06 09:38:39;;;;;;;20.90;13.20;;;;;;;5.80;100.00;101107.05;105963;1255;61895;-75
2024/03/06 09:41:07;;;;;;;19.70;13.30;;;;;;;6.11;100.00;101101.56;106036;1257;74029;-74
2024/03/06 09:43:35;;;;;;;20.20;13.60;;;;;;;6.59;99.41;101102.83;105986;1256;64259;-74
2024/03/06 09:46:02;;;;;;;23.30;13.60;;;;;;;7.24;90.83;101107.75;105909;1261;72549;-72
2024/03/06 09:48:29;;;;;;;17.00;12.70;;;;;;;7.92;75.21;101108.20;105769;1266;60542;-73
2024/03/06 09:51:02;;;;;;;17.80;11.20;;;;;;;8.38;69.40;101100.02;105957;1254;60437;-74
2024/03/06 09:53:30;;;;;;;17.90;13.00;;;;;;;8.73;63.83;101098.70;105849;1256;74852;-74
2024/03/06 09:55:57;;;;;;;18.80;11.60;;;;;;;8.98;61.67;101099.48;106092;1254;62292;-73
2024/03/06 09:58:24;;;;;;;17.40;12.10;;;;;;;9.23;58.85;101097.46;105904;1256;71317;-73
2024/03/06 10:00:51;;;;;;;13.90;12.20;;;;;;;9.40;56.94;101097.17;105969;1252;60526;-72
2024/03/06 10:03:18;;;;;;;20.00;11.10;;;;;;;9.61;55.90;101093.38;105946;1253;60485;-73
2024/03/06 10:05:46;;;;;;;17.00;13.40;;;;;;;9.56;54.57;101083.33;105927;1252;74021;-72
2024/03/06 10:08:16;;;;;;;15.00;12.90;;;;;;;9.54;56.29;101084.97;105935;1251;64996;-73
2024/03/06 10:10:46;;;;;;;16.70;12.40;;;;;;;9.73;56.55;101081.63;106048;1264;73904;-71
2024/03/06 10:13:17;;;;;;;19.80;13.30;;;;;;;9.88;54.77;101082.13;105954;1264;61451;-73
2024/03/06 10:16:04;;;;;;;17.60;12.20;;;;;;;9.81;54.12;101081.74;105965;1251;60441;-74
2024/03/06 10:18:32;;;;;;;17.70;13.20;;;;;;;9.74;53.70;101084.73;106059;1257;73937;-73
2024/03/06 10:21:00;;;;;;;26.90;13.40;;;;;;;9.48;53.84;101080.23;106045;1257;64218;-73
2024/03/06 10:23:29;;;;;;;14.80;12.20;;;;;;;9.18;55.09;101079.73;105998;1257;73780;-73
2024/03/06 10:25:56;;;;;;;18.80;12.40;;;;;;;8.90;56.31;101077.51;106059;1251;60577;-73
2024/03/06 10:28:23;;;;;;;22.20;12.70;;;;;;;8.72;58.16;101073.28;105962;1251;60688;-75
2024/03/06 10:30:51;;;;;;;21.50;14.70;;;;;;;8.61;59.22;101080.05;105971;1257;73883;-74
2024/03/06 10:33:18;;;;;;;18.70;14.00;;;;;;;8.53;59.91;101077.42;106029;1255;63863;-74
2024/03/06 10:35:48;;;;;;;17.70;12.60;;;;;;;8.50;60.75;101078.76;105907;1256;72856;-74
2024/03/06 10:38:15;;;;;;;20.30;14.10;;;;;;;8.53;61.04;101073.05;105943;1256;60523;-73
2024/03/06 10:40:42;;;;;;;20.80;15.40;;;;;;;8.56;61.08;101072.10;105882;1254;60434;-74
2024/03/06 10:43:09;;;;;;;20.60;13.90;;;;;;;8.51;60.93;101075.27;105927;1257;73417;-74
2024/03/06 10:46:00;;;;;;;18.30;12.60;;;;;;;8.44;60.27;101070.84;105954;1251;63610;-75
2024/03/06 10:48:28;;;;;;;19.00;12.20;;;;;;;8.23;61.97;101072.45;105886;1256;73128;-76
2024/03/06 10:50:57;;;;;;;22.00;13.90;;;;;;;8.07;62.76;101069.27;106002;1251;60529;-73
2024/03/06 10:53:26;;;;;;;19.40;13.10;;;;;;;7.92;63.92;101070.75;105976;1254;60350;-74
2024/03/06 10:55:56;;;;;;;19.90;12.90;;;;;;;7.80;65.32;101073.55;105934;1257;75369;-74
2024/03/06 10:58:23;;;;;;;16.80;12.80;;;;;;;7.64;67.19;101070.35;106026;1257;62616;-73
2024/03/06 11:00:50;;;;;;;23.60;12.50;;;;;;;7.60;68.93;101066.35;106018;1255;71793;-75
2024/03/06 11:03:17;;;;;;;20.40;13.20;;;;;;;7.62;70.04;101062.98;105978;1251;60581;-73
2024/03/06 11:05:46;;;;;;;21.80;13.70;;;;;;;7.69;69.32;101062.31;105956;1254;60417;-72
2024/03/06 11:08:14;;;;;;;26.00;12.50;;;;;;;7.74;69.23;101064.92;105905;1257;72845;-74
2024/03/06 11:10:42;;;;;;;19.70;12.80;;;;;;;7.70;69.04;101066.98;105960;1257;63762;-74
2024/03/06 11:13:18;;;;;;;22.40;13.50;;;;;;;7.61;69.48;101067.70;105912;1257;71596;-74
2024/03/06 11:15:49;;;;;;;18.80;12.90;;;;;;;7.78;71.33;101062.29;105932;1255;60523;-74
2024/03/06 11:18:39;;;;;;;17.80;11.60;;;;;;;8.08;69.86;101054.09;105799;1257;60556;-73
2024/03/06 11:21:06;;;;;;;17.40;12.80;;;;;;;8.41;65.99;101054.77;105773;1254;74006;-74
2024/03/06 11:23:33;;;;;;;19.60;13.30;;;;;;;8.56;64.33;101056.39;105971;1257;63195;-74
2024/03/06 11:26:04;;;;;;;19.50;13.10;;;;;;;8.74;62.23;101053.84;105902;1251;72988;-75
2024/03/06 11:28:35;;;;;;;14.40;11.80;;;;;;;8.90;62.15;101056.27;106026;1254;60543;-72
2024/03/06 11:31:04;;;;;;;17.30;13.10;;;;;;;9.06;60.18;101058.28;105967;1256;61412;-74
2024/03/06 11:33:42;;;;;;;39.10;12.40;;;;;;;9.04;59.20;101052.47;105878;1254;73654;-73
2024/03/06 11:36:26;;;;;;;16.00;11.60;;;;;;;9.07;59.33;101055.62;105964;1255;64171;-75
2024/03/06 11:39:01;;;;;;;19.40;12.60;;;;;;;9.23;57.31;101058.71;106073;1254;71509;-73
2024/03/06 11:41:30;;;;;;;18.20;11.60;;;;;;;9.22;57.09;101057.56;106588;1254;60579;-73
2024/03/06 11:44:00;;;;;;;19.20;12.10;;;;;;;9.26;56.73;101053.53;106607;1254;60552;-70
2024/03/06 11:46:41;;;;;;;17.90;12.00;;;;;;;9.34;56.24;101054.17;106895;1254;73453;-71
2024/03/06 11:49:21;;;;;;;18.80;11.10;;;;;;;9.31;55.11;101056.05;106212;1251;63081;-72
2024/03/06 11:51:49;;;;;;;28.30;13.50;;;;;;;9.19;55.66;101055.43;105961;1256;72510;-73
2024/03/06 11:54:23;;;;;;;16.30;12.40;;;;;;;9.17;55.98;101053.94;105976;1254;61026;-72
2024/03/06 11:56:51;;;;;;;14.00;11.50;;;;;;;9.26;56.59;101057.90;105974;1255;60430;-73
2024/03/06 11:59:21;;;;;;;15.90;11.80;;;;;;;9.40;56.31;101056.17;105993;1251;74249;-73
2024/03/06 12:01:48;;;;;;;15.00;10.60;;;;;;;9.57;54.92;101057.10;106121;1254;62958;-74
2024/03/06 12:04:15;;;;;;;16.20;10.30;;;;;;;9.57;54.36;101053.23;105942;1251;72430;-73
2024/03/06 12:06:42;;;;;;;16.10;11.60;;;;;;;9.43;54.95;101057.44;105942;1257;60551;-73
2024/03/06 12:09:11;;;;;;;14.20;11.20;;;;;;;9.29;55.68;101060.70;105875;1255;60323;-73
2024/03/06 12:11:38;;;;;;;11.90;9.90;;;;;;;9.18;56.89;101061.58;105959;1254;73837;-76
2024/03/06 12:14:05;;;;;;;16.30;10.90;;;;;;;9.00;57.93;101058.06;105961;1257;62971;-73
2024/03/06 12:16:32;;;;;;;18.50;11.70;;;;;;;8.66;59.27;101063.59;105896;1252;73032;-75
2024/03/06 12:18:59;;;;;;;13.50;10.80;;;;;;;8.38;60.88;101064.13;105884;1251;60417;-72
2024/03/06 12:21:32;;;;;;;19.10;10.90;;;;;;;8.16;62.44;101067.30;105931;1252;61898;-74
2024/03/06 12:24:09;;;;;;;14.30;9.20;;;;;;;8.01;63.87;101074.56;106088;1252;74005;-73
2024/03/06 12:26:36;;;;;;;24.20;10.80;;;;;;;7.88;64.80;101075.80;106911;1254;63818;-73
2024/03/06 12:29:07;;;;;;;18.20;11.10;;;;;;;7.61;66.07;101073.98;107067;1251;71380;-74
2024/03/06 12:31:35;;;;;;;16.40;10.80;;;;;;;7.42;68.99;101075.95;106370;1250;60451;-73
2024/03/06 12:34:03;;;;;;;20.80;11.80;;;;;;;7.36;70.42;101069.55;107069;1254;61251;-74
2024/03/06 12:36:32;;;;;;;13.90;10.90;;;;;;;7.31;70.84;101077.59;106621;1254;75096;-72
2024/03/06 12:39:03;;;;;;;17.60;10.50;;;;;;;7.21;70.18;101073.98;106224;1251;63526;-75
2024/03/06 12:41:30;;;;;;;23.60;11.30;;;;;;;6.98;71.67;101076.59;106145;1256;73504;-73
2024/03/06 12:43:56;;;;;;;20.80;11.90;;;;;;;6.79;74.25;101075.70;105991;1251;60488;-73
2024/03/06 12:46:23;;;;;;;18.60;12.30;;;;;;;6.73;76.35;101083.77;105984;1252;60418;-73
2024/03/06 12:48:50;;;;;;;16.20;11.30;;;;;;;6.65;76.60;101080.58;105868;1255;72772;-73
2024/03/06 12:51:17;;;;;;;20.90;12.50;;;;;;;6.54;78.06;101083.75;105960;1255;64147;-74
2024/03/06 12:53:45;;;;;;;17.90;13.20;;;;;;;6.47;78.77;101079.33;105956;1254;71898;-75
2024/03/06 12:56:12;;;;;;;19.70;13.60;;;;;;;6.41;79.39;101078.66;106074;1254;60500;-74
2024/03/06 12:58:39;;;;;;;18.60;13.10;;;;;;;6.33;80.51;101084.14;106064;1254;60427;-76
2024/03/06 13:01:06;;;;;;;22.00;13.70;;;;;;;6.26;81.13;101081.43;105962;1255;74099;-74
2024/03/06 13:03:33;;;;;;;22.20;12.70;;;;;;;6.19;81.59;101084.98;105955;1251;64104;-73
2024/03/06 13:06:00;;;;;;;17.70;12.80;;;;;;;6.09;83.20;101089.98;105946;1251;73831;-75
2024/03/06 13:08:27;;;;;;;17.20;13.60;;;;;;;5.98;85.96;101089.30;105937;1254;60526;-74
2024/03/06 13:10:54;;;;;;;20.30;12.80;;;;;;;5.96;88.46;101084.35;105949;1251;60615;-75
2024/03/06 13:13:25;;;;;;;20.30;13.70;;;;;;;5.89;88.94;101089.59;105955;1251;73734;-76
2024/03/06 13:15:52;;;;;;;30.30;14.90;;;;;;;5.81;89.87;101086.20;106088;1256;63182;-75
2024/03/06 13:18:19;;;;;;;21.80;13.00;;;;;;;5.78;91.83;101088.05;106020;1251;72673;-74
2024/03/06 13:20:46;;;;;;;27.50;14.40;;;;;;;5.77;91.88;101092.76;106086;1254;60485;-74
2024/03/06 13:23:13;;;;;;;22.60;13.80;;;;;;;5.73;92.25;101097.58;105952;1257;60453;-73
2024/03/06 13:25:42;;;;;;;16.60;12.70;;;;;;;5.61;92.66;101092.21;105829;1251;73320;-75
2024/03/06 13:28:09;;;;;;;18.40;12.80;;;;;;;5.53;94.65;101091.27;106009;1254;65292;-75
2024/03/06 13:30:36;;;;;;;21.00;13.00;;;;;;;5.48;97.21;101090.23;105916;1255;72859;-74
2024/03/06 13:33:03;;;;;;;22.90;14.00;;;;;;;5.40;97.61;101096.52;105953;1252;60536;-75
2024/03/06 13:35:30;;;;;;;19.20;13.40;;;;;;;5.37;98.46;101096.62;106002;1251;61102;-73
2024/03/06 13:37:57;;;;;;;20.90;13.90;;;;;;;5.36;100.00;101095.42;106029;1251;74164;-73
2024/03/06 13:40:25;;;;;;;26.30;13.60;;;;;;;5.33;100.00;101102.11;105936;1254;64130;-72
2024/03/06 13:42:52;;;;;;;18.70;13.00;;;;;;;5.31;100.00;101102.00;106066;1254;71493;-73
2024/03/06 13:45:19;;;;;;;23.40;14.40;;;;;;;5.29;100.00;101103.11;105985;1257;60294;-72
2024/03/06 13:47:48;;;;;;;20.50;13.70;;;;;;;5.25;100.00;101103.05;106004;1254;60484;-74
2024/03/06 13:50:16;;;;;;;20.70;14.20;;;;;;;5.15;100.00;101106.29;105870;1251;73772;-75
2024/03/06 13:52:43;;;;;;;18.00;11.90;;;;;;;5.06;100.00;101103.27;106041;1250;64920;-73
2024/03/06 13:55:10;;;;;;;19.50;13.10;;;;;;;4.96;100.00;101102.86;106019;1251;70666;-74
2024/03/06 13:57:37;;;;;;;18.20;12.00;;;;;;;4.89;100.00;101110.50;106024;1254;60517;-74
2024/03/06 14:00:06;;;;;;;17.40;11.30;;;;;;;4.86;100.00;101107.48;106059;1251;60527;-75
2024/03/06 14:02:40;;;;;;;15.30;10.10;;;;;;;4.82;100.00;101106.05;105951;1251;74184;-73
2024/03/06 14:05:07;;;;;;;22.40;13.90;;;;;;;4.78;100.00;101107.70;106107;1255;63258;-75
2024/03/06 14:07:35;;;;;;;25.80;14.50;;;;;;;4.70;100.00;101110.52;105931;1254;72680;-73
2024/03/06 14:10:01;;;;;;;21.50;14.50;;;;;;;4.66;100.00;101115.64;106061;1254;60443;-72
2024/03/06 14:12:35;;;;;;;21.50;13.40;;;;;;;4.67;100.00;101122.22;106019;1251;60503;-74
2024/03/06 14:15:03;;;;;;;15.50;11.80;;;;;;;4.68;100.00;101122.54;106413;1251;73738;-72
2024/03/06 14:17:30;;;;;;;17.40;12.00;;;;;;;4.63;100.00;101124.92;106625;1251;64203;-73